Time;durP1;ratioP1;P1;durP2;ratioP2;P2;SDS_P1;SDS_P2;PMS_P1;PMS_P2;Temp;Humidity;BMP_temperature;BMP_pressure;BME280_temperature;BME280_humidity;BME280_pressure;Samples;Min_cycle;Max_cycle;Signal;HPM_P1;HPM_P2
2021/11/23 00:00:44;;;;;;;14.60;7.40;;;;;;;5.13;65.87;99362.48;24430;1357;3028763;-68
2021/11/23 00:03:14;;;;;;;14.60;6.30;;;;;;;5.15;65.79;99363.45;24443;1360;3027097;-67
2021/11/23 00:05:45;;;;;;;16.70;7.90;;;;;;;5.01;65.99;99362.40;24432;1362;3027221;-71
2021/11/23 00:08:15;;;;;;;16.00;7.00;;;;;;;5.02;66.02;99372.26;24424;1357;3026386;-75
2021/11/23 00:10:44;;;;;;;11.30;6.00;;;;;;;4.85;66.33;99366.52;24367;1357;3026866;-67
2021/11/23 00:13:15;;;;;;;10.10;5.80;;;;;;;4.91;66.00;99368.37;24421;1357;3026151;-70
2021/11/23 00:15:44;;;;;;;11.60;6.10;;;;;;;4.97;65.79;99370.20;24439;1357;3029050;-70
2021/11/23 00:18:14;;;;;;;16.90;7.10;;;;;;;4.98;65.60;99370.02;24383;1360;3026863;-71
2021/11/23 00:20:43;;;;;;;11.50;6.30;;;;;;;4.89;65.61;99372.08;24478;1356;3026281;-67
2021/11/23 00:23:13;;;;;;;25.30;9.80;;;;;;;4.87;65.67;99366.77;24453;1356;3026386;-67
2021/11/23 00:25:42;;;;;;;36.60;13.70;;;;;;;4.84;65.63;99364.79;24409;1360;3028596;-69
2021/11/23 00:28:11;;;;;;;36.10;14.40;;;;;;;4.88;65.50;99365.70;24390;1361;3027370;-70
2021/11/23 00:30:43;;;;;;;24.60;10.50;;;;;;;4.79;65.40;99368.29;24414;1357;3051499;-66
2021/11/23 00:33:13;;;;;;;16.90;7.70;;;;;;;4.70;65.63;99366.91;24426;1360;3026757;-68
2021/11/23 00:35:43;;;;;;;14.70;5.80;;;;;;;4.73;65.30;99366.96;24433;1356;3027655;-70
2021/11/23 00:38:12;;;;;;;12.70;5.20;;;;;;;4.72;65.04;99364.04;24431;1360;3027274;-69
2021/11/23 00:40:41;;;;;;;14.50;4.20;;;;;;;4.69;64.80;99364.16;24436;1356;3029238;-69
2021/11/23 00:43:10;;;;;;;8.80;4.30;;;;;;;4.62;64.64;99368.77;24415;1360;3059028;-71
2021/11/23 00:45:40;;;;;;;10.20;4.40;;;;;;;4.62;64.42;99366.69;24409;1357;3026598;-69
2021/11/23 00:48:14;;;;;;;10.00;4.00;;;;;;;4.63;64.14;99363.55;24439;1356;3055944;-68
2021/11/23 00:50:43;;;;;;;6.40;3.40;;;;;;;4.57;63.95;99360.45;24397;1357;3028065;-68
2021/11/23 00:53:12;;;;;;;8.30;3.30;;;;;;;4.61;63.86;99363.09;24402;1357;3048390;-71
2021/11/23 00:55:42;;;;;;;6.50;3.30;;;;;;;4.61;63.65;99362.20;24423;1361;3026575;-67
2021/11/23 00:58:11;;;;;;;8.30;3.60;;;;;;;4.60;63.80;99368.34;24430;1357;3026354;-66
2021/11/23 01:00:40;;;;;;;8.70;3.40;;;;;;;4.64;63.78;99369.73;24443;1362;3051930;-65
2021/11/23 01:03:09;;;;;;;7.60;3.50;;;;;;;4.64;63.45;99370.79;24435;1363;3026760;-72
2021/11/23 01:05:39;;;;;;;8.00;3.40;;;;;;;4.64;63.53;99366.27;24444;1359;3057646;-65
2021/11/23 01:08:08;;;;;;;6.70;3.00;;;;;;;4.64;63.35;99368.88;24397;1362;3028818;-70
2021/11/23 01:10:39;;;;;;;7.60;3.50;;;;;;;4.66;63.34;99367.41;24393;1361;3026769;-69
2021/11/23 01:13:08;;;;;;;6.80;3.40;;;;;;;4.63;63.07;99362.30;24414;1361;3026747;-72
2021/11/23 01:15:42;;;;;;;;;;;;;;;4.60;62.82;99366.23;24463;1362;3070227;-73
2021/11/23 01:18:11;;;;;;;6.00;3.40;;;;;;;4.53;62.62;99364.41;24414;1357;3028200;-65
2021/11/23 01:20:40;;;;;;;5.20;2.80;;;;;;;4.52;62.65;99363.74;24468;1360;3053397;-70
2021/11/23 01:23:09;;;;;;;7.00;3.20;;;;;;;4.52;62.25;99360.13;24413;1357;3028172;-76
2021/11/23 01:25:39;;;;;;;6.00;3.20;;;;;;;4.51;62.05;99364.48;24433;1357;3056250;-64
2021/11/23 01:28:14;;;;;;;8.80;3.50;;;;;;;4.40;62.02;99368.88;24413;1363;3053441;-65
2021/11/23 01:30:43;;;;;;;5.80;2.60;;;;;;;4.43;62.23;99365.48;24402;1357;3026425;-73
2021/11/23 01:33:13;;;;;;;5.20;2.60;;;;;;;4.45;62.29;99365.92;24420;1360;3026213;-71
2021/11/23 01:35:43;;;;;;;8.90;3.10;;;;;;;4.50;62.18;99373.05;24389;1363;3027370;-67
2021/11/23 01:38:13;;;;;;;4.70;2.60;;;;;;;4.48;62.12;99377.63;24397;1360;3029833;-66
2021/11/23 01:40:43;;;;;;;7.00;3.20;;;;;;;4.41;62.03;99373.70;24454;1363;3027255;-71
2021/11/23 01:43:12;;;;;;;8.80;3.70;;;;;;;4.38;62.20;99371.56;24477;1355;3026966;-67
2021/11/23 01:45:41;;;;;;;5.50;2.90;;;;;;;4.42;62.44;99370.88;24448;1360;3026540;-72
2021/11/23 01:48:11;;;;;;;6.20;3.20;;;;;;;4.48;62.05;99369.98;24418;1354;3055383;-73
2021/11/23 01:50:40;;;;;;;5.30;2.70;;;;;;;4.46;61.98;99368.81;24449;1360;3026718;-71
2021/11/23 01:53:09;;;;;;;7.50;4.10;;;;;;;4.43;61.56;99366.67;24420;1363;3054001;-67
2021/11/23 01:55:40;;;;;;;11.90;5.20;;;;;;;4.42;61.78;99368.30;24452;1355;3025936;-67
2021/11/23 01:58:10;;;;;;;18.30;7.40;;;;;;;4.41;61.65;99359.67;24420;1357;3051740;-72
2021/11/23 02:00:40;;;;;;;12.60;5.20;;;;;;;4.41;61.57;99361.77;24462;1353;3027138;-70
2021/11/23 02:03:09;;;;;;;9.20;4.60;;;;;;;4.39;61.46;99360.42;24424;1358;3026803;-66
2021/11/23 02:05:39;;;;;;;7.80;4.20;;;;;;;4.38;61.60;99363.41;24378;1361;3028668;-69
2021/11/23 02:08:10;;;;;;;6.50;3.20;;;;;;;4.34;61.39;99369.81;24427;1357;3026448;-70
2021/11/23 02:10:40;;;;;;;7.40;2.90;;;;;;;4.33;61.48;99370.16;24473;1363;3027573;-73
2021/11/23 02:13:09;;;;;;;4.30;2.90;;;;;;;4.36;61.31;99369.02;24396;1356;3027297;-67
2021/11/23 02:15:39;;;;;;;5.40;3.00;;;;;;;4.36;61.25;99369.02;24441;1360;3054910;-76
2021/11/23 02:18:12;;;;;;;5.00;3.20;;;;;;;4.25;61.04;99367.17;24427;1357;3026857;-71
2021/11/23 02:20:42;;;;;;;6.70;3.80;;;;;;;4.24;61.15;99363.39;24418;1357;3071592;-68
2021/11/23 02:23:11;;;;;;;6.50;3.20;;;;;;;4.25;61.03;99370.13;24420;1357;3028034;-68
2021/11/23 02:25:41;;;;;;;6.30;3.40;;;;;;;4.20;61.03;99375.84;24442;1357;3026622;-67
2021/11/23 02:28:11;;;;;;;7.90;3.80;;;;;;;4.10;61.08;99376.17;24461;1362;3026747;-71
2021/11/23 02:30:48;;;;;;;8.10;3.90;;;;;;;4.12;61.01;99377.87;24469;1363;3026708;-67
2021/11/23 02:33:19;;;;;;;7.60;4.00;;;;;;;4.11;61.19;99376.33;24403;1357;3052129;-66
2021/11/23 02:35:49;;;;;;;9.80;4.20;;;;;;;4.05;61.36;99380.02;24450;1362;3026738;-69
2021/11/23 02:38:20;;;;;;;8.40;4.20;;;;;;;4.09;61.54;99377.45;24422;1360;3026432;-73
2021/11/23 02:40:49;;;;;;;7.40;3.80;;;;;;;4.13;61.49;99375.24;24472;1363;3027478;-73
2021/11/23 02:43:19;;;;;;;8.90;4.50;;;;;;;4.16;61.26;99377.36;24437;1360;3027099;-71
2021/11/23 02:45:48;;;;;;;12.20;5.30;;;;;;;4.16;61.09;99371.84;24417;1362;3026527;-73
2021/11/23 02:48:18;;;;;;;10.90;4.30;;;;;;;4.15;61.19;99369.09;24448;1363;3028471;-70
2021/11/23 02:50:54;;;;;;;6.20;3.50;;;;;;;4.17;61.00;99370.55;24389;1357;3026761;-68
2021/11/23 02:53:24;;;;;;;6.30;3.00;;;;;;;4.16;60.86;99372.52;24436;1356;3050423;-67
2021/11/23 02:55:53;;;;;;;6.20;3.10;;;;;;;4.10;60.88;99371.35;24417;1360;3026857;-70
2021/11/23 02:58:22;;;;;;;6.20;3.30;;;;;;;4.01;61.22;99375.11;24463;1357;3027026;-65
2021/11/23 03:00:51;;;;;;;6.80;3.10;;;;;;;4.03;61.22;99377.65;24407;1357;3026575;-66
2021/11/23 03:03:21;;;;;;;6.40;3.10;;;;;;;4.04;61.15;99377.61;24447;1361;3055217;-69
2021/11/23 03:05:52;;;;;;;6.20;3.40;;;;;;;4.00;61.43;99381.76;24400;1356;3026429;-68
2021/11/23 03:08:21;;;;;;;6.30;4.20;;;;;;;4.00;61.55;99383.46;24440;1363;3050477;-70
2021/11/23 03:10:50;;;;;;;5.60;3.90;;;;;;;3.98;61.54;99382.16;24416;1360;3026186;-65
2021/11/23 03:13:20;;;;;;;6.80;3.50;;;;;;;3.89;61.99;99382.33;24413;1357;3059322;-70
2021/11/23 03:15:49;;;;;;;6.50;3.60;;;;;;;3.81;62.59;99383.27;24410;1363;3026291;-73
2021/11/23 03:18:18;;;;;;;7.10;4.20;;;;;;;3.74;62.85;99388.54;24390;1360;3053213;-68
2021/11/23 03:20:47;;;;;;;6.10;3.60;;;;;;;3.64;63.13;99394.93;24442;1363;3026449;-70
2021/11/23 03:23:17;;;;;;;7.60;3.80;;;;;;;3.62;63.39;99394.48;24417;1357;3051998;-68
2021/11/23 03:25:46;;;;;;;10.50;3.50;;;;;;;3.74;63.59;99395.11;24422;1361;3027420;-74
2021/11/23 03:28:15;;;;;;;7.70;3.70;;;;;;;3.73;63.55;99402.23;24475;1357;3026268;-72
2021/11/23 03:30:45;;;;;;;8.00;3.90;;;;;;;3.61;63.90;99406.96;24431;1358;3053782;-68
2021/11/23 03:33:14;;;;;;;8.30;4.20;;;;;;;3.47;64.17;99423.89;24450;1362;3026557;-75
2021/11/23 03:35:43;;;;;;;9.10;3.70;;;;;;;3.31;65.05;99429.92;24400;1363;3026382;-73
2021/11/23 03:38:13;;;;;;;7.40;3.90;;;;;;;3.23;65.24;99428.80;24421;1362;3054454;-71
2021/11/23 03:40:43;;;;;;;5.90;3.90;;;;;;;3.26;64.89;99425.58;24420;1354;3027659;-73
2021/11/23 03:43:15;;;;;;;7.90;4.10;;;;;;;3.20;65.14;99422.98;24443;1363;3026889;-71
2021/11/23 03:45:44;;;;;;;7.20;3.50;;;;;;;3.27;64.91;99421.24;24448;1357;3027295;-75
2021/11/23 03:48:13;;;;;;;7.80;3.40;;;;;;;3.22;65.12;99424.15;24434;1361;3051751;-72
2021/11/23 03:50:43;;;;;;;11.50;4.10;;;;;;;3.19;65.04;99424.92;24423;1362;3026472;-75
2021/11/23 03:53:12;;;;;;;9.70;3.70;;;;;;;3.14;65.53;99425.27;24449;1363;3026407;-69
2021/11/23 03:55:48;;;;;;;6.20;3.30;;;;;;;3.17;65.29;99421.71;24424;1361;3026974;-67
2021/11/23 03:58:17;;;;;;;6.30;3.00;;;;;;;3.20;65.19;99422.81;24427;1361;3051235;-71
2021/11/23 04:00:46;;;;;;;7.90;4.00;;;;;;;3.14;65.26;99419.54;24447;1363;3026383;-70
2021/11/23 04:03:16;;;;;;;6.00;3.50;;;;;;;3.15;65.24;99419.70;24389;1363;3056040;-67
2021/11/23 04:05:45;;;;;;;7.20;3.70;;;;;;;3.16;65.18;99417.23;24436;1361;3026564;-73
2021/11/23 04:08:15;;;;;;;6.80;3.70;;;;;;;3.14;65.41;99414.00;24456;1357;3051904;-66
2021/11/23 04:10:44;;;;;;;7.00;3.30;;;;;;;3.11;65.53;99412.89;24467;1363;3026562;-71
2021/11/23 04:13:13;;;;;;;6.40;3.70;;;;;;;3.12;65.27;99419.11;24390;1362;3027057;-69
2021/11/23 04:15:42;;;;;;;7.30;3.10;;;;;;;3.03;64.96;99425.40;24400;1355;3047619;-71
2021/11/23 04:18:11;;;;;;;11.30;3.30;;;;;;;3.03;64.72;99427.14;24417;1363;3026518;-73
2021/11/23 04:20:41;;;;;;;7.70;3.20;;;;;;;2.95;64.72;99427.06;24397;1355;3058866;-69
2021/11/23 04:23:11;;;;;;;6.00;3.10;;;;;;;3.02;64.25;99424.60;24428;1357;3026890;-67
2021/11/23 04:25:40;;;;;;;6.80;3.30;;;;;;;3.06;63.62;99420.83;24429;1361;3026809;-73
2021/11/23 04:28:09;;;;;;;7.70;3.50;;;;;;;3.10;63.57;99421.07;24433;1363;3026113;-71
2021/11/23 04:30:39;;;;;;;6.10;3.30;;;;;;;3.05;63.61;99428.50;24422;1361;3051650;-71
2021/11/23 04:33:13;;;;;;;7.30;4.00;;;;;;;3.11;63.36;99433.67;24398;1356;3027028;-70
2021/11/23 04:35:43;;;;;;;8.40;3.90;;;;;;;3.02;63.24;99432.73;24433;1363;3058598;-74
2021/11/23 04:38:12;;;;;;;6.30;3.40;;;;;;;3.01;63.37;99436.39;24439;1356;3026606;-68
2021/11/23 04:40:42;;;;;;;5.50;2.90;;;;;;;2.96;62.92;99434.81;24455;1360;3026967;-72
2021/11/23 04:43:11;;;;;;;8.40;3.60;;;;;;;2.93;63.33;99436.45;24410;1356;3058281;-70
2021/11/23 04:45:40;;;;;;;9.00;3.40;;;;;;;3.03;63.13;99434.42;24478;1361;3026252;-69
2021/11/23 04:48:09;;;;;;;9.30;3.60;;;;;;;3.14;62.62;99429.59;24448;1357;3051411;-68
2021/11/23 04:50:39;;;;;;;6.10;3.20;;;;;;;3.16;62.41;99424.86;24434;1361;3027389;-69
2021/11/23 04:53:10;;;;;;;4.60;2.50;;;;;;;3.16;61.99;99427.27;24421;1363;3026483;-70
2021/11/23 04:55:40;;;;;;;5.70;2.90;;;;;;;3.15;61.82;99433.54;24195;1363;3340329;-67
2021/11/23 04:58:09;;;;;;;6.00;3.00;;;;;;;3.12;62.02;99440.21;24440;1362;3027025;-67
2021/11/23 05:00:38;;;;;;;6.10;3.50;;;;;;;3.04;62.11;99441.48;24453;1362;3048500;-68
2021/11/23 05:03:07;;;;;;;6.10;3.20;;;;;;;2.99;62.28;99450.64;24473;1363;3026993;-67
2021/11/23 05:05:37;;;;;;;7.60;3.20;;;;;;;3.04;62.32;99450.84;24470;1363;3026647;-73
2021/11/23 05:08:06;;;;;;;7.20;3.40;;;;;;;3.01;61.79;99449.04;24410;1356;3048767;-68
2021/11/23 05:10:35;;;;;;;8.80;3.70;;;;;;;3.13;62.17;99456.28;24414;1357;3026332;-72
2021/11/23 05:13:04;;;;;;;9.30;4.20;;;;;;;3.20;61.77;99454.48;24430;1355;3058799;-69
2021/11/23 05:15:42;;;;;;;7.50;3.40;;;;;;;3.24;61.58;99453.36;24405;1363;3052835;-68
2021/11/23 05:18:11;;;;;;;7.30;3.90;;;;;;;3.15;61.28;99465.73;24406;1361;3026440;-71
2021/11/23 05:20:40;;;;;;;9.40;3.90;;;;;;;3.08;61.76;99468.73;24423;1363;3027388;-68
2021/11/23 05:23:09;;;;;;;9.10;4.70;;;;;;;3.13;61.36;99472.38;24497;1360;3048967;-70
2021/11/23 05:25:38;;;;;;;7.70;4.50;;;;;;;3.22;62.04;99479.91;24421;1355;3026319;-72
2021/11/23 05:28:07;;;;;;;9.90;5.50;;;;;;;3.26;61.53;99485.32;24426;1357;3058753;-71
2021/11/23 05:30:37;;;;;;;9.90;5.70;;;;;;;3.27;61.60;99487.19;24391;1357;3026629;-67
2021/11/23 05:33:06;;;;;;;18.50;7.10;;;;;;;3.30;61.56;99486.75;24424;1357;3030726;-69
2021/11/23 05:35:35;;;;;;;11.80;5.80;;;;;;;3.34;61.31;99490.26;24389;1355;3057055;-74
2021/11/23 05:38:05;;;;;;;12.50;5.90;;;;;;;3.41;61.25;99490.04;24396;1357;3027384;-74
2021/11/23 05:40:36;;;;;;;17.00;6.00;;;;;;;3.52;60.95;99490.75;24416;1363;3026684;-66
2021/11/23 05:43:06;;;;;;;11.50;6.00;;;;;;;3.58;60.78;99496.97;24443;1360;3026736;-72
2021/11/23 05:45:35;;;;;;;11.60;5.80;;;;;;;3.56;60.93;99497.55;24403;1357;3025787;-70
2021/11/23 05:48:04;;;;;;;12.40;5.20;;;;;;;3.44;61.14;99497.07;24412;1361;3051802;-72
2021/11/23 05:50:33;;;;;;;10.00;5.80;;;;;;;3.49;61.31;99501.75;24478;1359;3026467;-71
2021/11/23 05:53:02;;;;;;;12.00;5.80;;;;;;;3.52;61.22;99498.52;24444;1357;3027223;-69
2021/11/23 05:55:33;;;;;;;11.60;5.00;;;;;;;3.64;61.11;99500.23;24406;1357;3055610;-71
2021/11/23 05:58:02;;;;;;;10.90;5.70;;;;;;;3.69;60.74;99507.37;24429;1355;3027566;-69
2021/11/23 06:00:31;;;;;;;18.40;5.80;;;;;;;3.70;61.01;99509.41;24480;1362;3026644;-70
2021/11/23 06:03:00;;;;;;;8.80;5.10;;;;;;;3.72;60.97;99507.27;24434;1360;3029105;-71
2021/11/23 06:05:29;;;;;;;9.50;5.20;;;;;;;3.66;60.80;99505.91;24403;1357;3049644;-67
2021/11/23 06:07:58;;;;;;;9.30;4.90;;;;;;;3.80;60.63;99505.10;24398;1356;3026387;-71
2021/11/23 06:10:27;;;;;;;11.50;4.90;;;;;;;3.82;60.22;99506.27;24459;1361;3026697;-67
2021/11/23 06:12:57;;;;;;;16.60;7.10;;;;;;;3.81;60.40;99506.48;24474;1362;3053770;-67
2021/11/23 06:15:28;;;;;;;14.50;7.00;;;;;;;3.70;61.12;99507.66;24489;1357;3026041;-71
2021/11/23 06:18:02;;;;;;;18.20;7.10;;;;;;;3.76;61.42;99508.35;24492;1356;3051838;-70
2021/11/23 06:20:32;;;;;;;16.30;7.30;;;;;;;3.70;61.87;99509.57;24438;1356;3050072;-76
2021/11/23 06:23:02;;;;;;;19.60;7.60;;;;;;;3.78;61.76;99510.90;24463;1360;3026559;-70
2021/11/23 06:25:31;;;;;;;16.50;7.60;;;;;;;3.75;62.19;99512.90;24439;1363;3028594;-74
2021/11/23 06:28:00;;;;;;;13.80;6.60;;;;;;;3.62;62.55;99517.27;24407;1357;3026586;-71
2021/11/23 06:30:31;;;;;;;14.10;6.80;;;;;;;3.54;62.84;99516.84;24425;1363;3068749;-69
2021/11/23 06:33:00;;;;;;;14.40;7.00;;;;;;;3.54;63.05;99515.61;24440;1363;3026740;-70
2021/11/23 06:35:30;;;;;;;13.20;6.20;;;;;;;3.57;62.98;99512.77;24463;1363;3026512;-72
2021/11/23 06:37:59;;;;;;;11.80;6.70;;;;;;;3.59;63.08;99516.67;24422;1357;3067562;-71
2021/11/23 06:40:28;;;;;;;12.80;5.20;;;;;;;3.62;62.98;99520.05;24423;1356;3026326;-68
2021/11/23 06:42:57;;;;;;;13.80;6.70;;;;;;;3.61;62.56;99522.88;24454;1363;3050302;-69
2021/11/23 06:45:27;;;;;;;13.40;7.00;;;;;;;3.56;63.08;99518.86;24404;1362;3026647;-72
2021/11/23 06:47:56;;;;;;;15.10;6.70;;;;;;;3.59;63.08;99522.04;24422;1357;3026374;-70
2021/11/23 06:50:31;;;;;;;13.80;6.70;;;;;;;3.41;63.58;99525.55;24419;1360;3053773;-73
2021/11/23 06:53:02;;;;;;;17.60;6.50;;;;;;;3.40;63.60;99526.08;24422;1360;3069312;-74
2021/11/23 06:55:31;;;;;;;15.40;8.70;;;;;;;3.23;64.17;99524.88;24467;1356;3026433;-65
2021/11/23 06:58:00;;;;;;;11.90;6.70;;;;;;;3.21;64.63;99522.00;24449;1357;3028343;-72
2021/11/23 07:00:30;;;;;;;12.00;7.40;;;;;;;3.33;64.14;99526.81;24417;1356;3071109;-74
2021/11/23 07:02:59;;;;;;;21.30;7.80;;;;;;;3.27;64.28;99527.71;24494;1356;3026929;-72
2021/11/23 07:05:28;;;;;;;14.70;7.50;;;;;;;3.31;64.02;99532.94;24481;1363;3049384;-71
2021/11/23 07:07:59;;;;;;;13.80;6.10;;;;;;;3.20;64.59;99534.14;24477;1359;3026989;-73
2021/11/23 07:10:28;;;;;;;11.20;5.90;;;;;;;3.25;64.30;99537.80;24393;1363;3027039;-70
2021/11/23 07:12:59;;;;;;;12.10;6.20;;;;;;;3.25;64.45;99539.52;24432;1356;3052883;-70
2021/11/23 07:15:29;;;;;;;13.40;5.90;;;;;;;3.20;64.60;99536.38;24426;1363;3027546;-69
2021/11/23 07:17:58;;;;;;;14.40;7.20;;;;;;;3.16;64.72;99537.52;24435;1357;3026435;-67
2021/11/23 07:20:28;;;;;;;16.10;6.60;;;;;;;3.13;64.85;99539.38;24430;1363;3026358;-76
2021/11/23 07:22:57;;;;;;;11.90;6.10;;;;;;;3.14;64.60;99543.65;24435;1359;3026304;-69
2021/11/23 07:25:26;;;;;;;13.30;6.50;;;;;;;3.11;64.69;99548.75;24465;1357;3049521;-73
2021/11/23 07:27:55;;;;;;;12.90;7.20;;;;;;;3.11;64.67;99547.37;24399;1357;3026616;-71
2021/11/23 07:30:24;;;;;;;13.10;7.20;;;;;;;3.37;64.24;99543.86;24490;1356;3026964;-68
2021/11/23 07:32:53;;;;;;;14.80;7.40;;;;;;;3.55;63.86;99544.02;24438;1357;3049059;-78
2021/11/23 07:35:23;;;;;;;19.90;7.30;;;;;;;3.63;63.39;99544.79;24436;1357;3026595;-75
2021/11/23 07:37:52;;;;;;;10.60;6.30;;;;;;;3.55;63.28;99551.80;24500;1360;3071401;-72
2021/11/23 07:40:22;;;;;;;14.60;6.90;;;;;;;3.39;63.47;99548.46;24461;1357;3027066;-75
2021/11/23 07:42:51;;;;;;;17.00;7.30;;;;;;;3.33;63.84;99553.13;24430;1363;3052965;-71
2021/11/23 07:45:21;;;;;;;12.90;7.00;;;;;;;3.41;63.63;99546.16;24410;1360;3029127;-68
2021/11/23 07:47:52;;;;;;;14.40;6.50;;;;;;;3.55;62.91;99548.69;24481;1363;3053285;-69
2021/11/23 07:50:21;;;;;;;12.60;7.00;;;;;;;3.53;62.53;99551.15;24396;1360;3026617;-72
2021/11/23 07:52:50;;;;;;;13.70;5.50;;;;;;;3.46;62.19;99555.18;24401;1362;3028172;-71
2021/11/23 07:55:19;;;;;;;13.70;6.20;;;;;;;3.46;62.42;99558.82;24418;1357;3055428;-72
2021/11/23 07:57:48;;;;;;;15.20;6.40;;;;;;;3.49;62.60;99554.57;24412;1360;3026621;-73
2021/11/23 08:00:18;;;;;;;16.00;5.90;;;;;;;3.56;62.29;99559.39;24408;1360;3051499;-73
2021/11/23 08:02:47;;;;;;;11.00;6.00;;;;;;;3.65;62.07;99560.66;24456;1353;3026704;-70
2021/11/23 08:05:16;;;;;;;16.80;6.20;;;;;;;3.60;62.31;99559.95;24432;1360;3058020;-76
2021/11/23 08:07:47;;;;;;;15.60;6.70;;;;;;;3.62;62.39;99560.41;24418;1360;3026458;-73
2021/11/23 08:10:16;;;;;;;10.30;5.30;;;;;;;3.75;62.10;99555.69;24460;1358;3026782;-74
2021/11/23 08:12:46;;;;;;;15.30;6.30;;;;;;;3.85;62.05;99558.84;24372;1360;3057954;-71
2021/11/23 08:15:16;;;;;;;15.40;6.70;;;;;;;3.89;61.95;99559.25;24430;1358;3026746;-71
2021/11/23 08:17:47;;;;;;;14.40;6.70;;;;;;;3.96;61.66;99556.77;24426;1360;3026795;-71
2021/11/23 08:20:16;;;;;;;18.20;7.00;;;;;;;3.94;61.70;99554.41;24426;1363;3056228;-70
2021/11/23 08:22:46;;;;;;;13.60;7.20;;;;;;;3.90;62.04;99551.93;24413;1359;3026267;-71
2021/11/23 08:25:15;;;;;;;14.90;7.00;;;;;;;3.80;62.20;99550.50;24456;1359;3026465;-65
2021/11/23 08:27:44;;;;;;;14.50;6.40;;;;;;;3.79;62.03;99546.55;24436;1361;3027037;-73
2021/11/23 08:30:13;;;;;;;12.80;5.50;;;;;;;3.68;61.98;99541.70;24408;1360;3026581;-67
2021/11/23 08:32:43;;;;;;;11.70;4.90;;;;;;;3.65;62.37;99536.25;24408;1360;3052406;-74
2021/11/23 08:35:12;;;;;;;8.80;5.10;;;;;;;3.76;62.12;99533.81;24416;1362;3026986;-70
2021/11/23 08:37:41;;;;;;;14.10;6.00;;;;;;;3.87;61.46;99529.63;24428;1358;3028249;-74
2021/11/23 08:40:11;;;;;;;13.50;5.30;;;;;;;3.71;61.18;99529.81;24405;1360;3028313;-71
2021/11/23 08:42:40;;;;;;;11.90;6.40;;;;;;;3.84;61.39;99537.40;24415;1360;3053693;-72
2021/11/23 08:45:18;;;;;;;10.30;5.20;;;;;;;4.02;61.50;99548.25;24425;1359;3073091;-72
2021/11/23 08:47:48;;;;;;;10.70;5.30;;;;;;;4.17;61.05;99547.41;24389;1365;3029395;-68
2021/11/23 08:50:18;;;;;;;17.20;7.50;;;;;;;4.28;60.69;99543.92;24442;1359;3028488;-70
2021/11/23 08:52:47;;;;;;;12.60;5.80;;;;;;;4.42;59.76;99535.84;24436;1358;3068010;-71
2021/11/23 08:55:16;;;;;;;12.80;5.20;;;;;;;4.45;59.15;99529.66;24404;1360;3028000;-72
2021/11/23 08:57:45;;;;;;;9.50;5.50;;;;;;;4.47;58.85;99530.27;24447;1359;3050829;-71
2021/11/23 09:00:19;;;;;;;10.80;5.70;;;;;;;4.54;58.59;99537.15;24455;1360;3026524;-72
2021/11/23 09:02:50;;;;;;;8.30;5.00;;;;;;;4.43;58.93;99537.36;24448;1362;3052711;-73
2021/11/23 09:05:20;;;;;;;8.10;4.60;;;;;;;4.34;58.65;99538.54;24489;1360;3026372;-67
2021/11/23 09:07:50;;;;;;;12.00;5.40;;;;;;;4.29;58.58;99541.82;24503;1361;3027335;-71
2021/11/23 09:10:22;;;;;;;11.60;5.20;;;;;;;4.31;58.68;99531.17;24573;1360;3026487;-74
2021/11/23 09:12:54;;;;;;;10.80;5.50;;;;;;;4.39;58.46;99541.12;24847;1360;3026880;-73
2021/11/23 09:15:23;;;;;;;10.60;5.70;;;;;;;4.35;58.32;99538.83;24701;1363;3028517;-78
2021/11/23 09:17:55;;;;;;;12.60;4.80;;;;;;;4.47;58.64;99541.38;24473;1357;3026854;-72
2021/11/23 09:20:24;;;;;;;9.00;4.30;;;;;;;4.42;57.79;99548.65;24429;1356;3025953;-72
2021/11/23 09:22:53;;;;;;;9.60;4.70;;;;;;;4.23;58.39;99553.13;24512;1357;3028480;-73
2021/11/23 09:25:23;;;;;;;5.30;3.10;;;;;;;4.14;58.19;99549.77;24454;1359;3026824;-73
2021/11/23 09:27:52;;;;;;;10.80;4.70;;;;;;;3.91;57.51;99555.20;24552;1359;3026410;-69
2021/11/23 09:30:21;;;;;;;7.30;3.80;;;;;;;3.95;57.52;99551.76;24568;1360;3052567;-77
2021/11/23 09:32:55;;;;;;;8.00;3.70;;;;;;;3.96;57.51;99558.48;24494;1357;3051671;-69
2021/11/23 09:35:24;;;;;;;8.90;4.40;;;;;;;4.11;57.85;99550.73;24430;1359;3026306;-74
2021/11/23 09:37:54;;;;;;;5.60;3.00;;;;;;;4.40;57.38;99553.94;24479;1357;3026463;-72
2021/11/23 09:40:23;;;;;;;4.80;3.20;;;;;;;4.45;56.31;99544.58;24409;1360;3027914;-75
2021/11/23 09:42:53;;;;;;;5.40;2.90;;;;;;;4.37;55.92;99552.98;24465;1359;3028345;-67
2021/11/23 09:45:22;;;;;;;7.90;3.70;;;;;;;4.33;56.25;99553.98;24386;1360;3027041;-70
2021/11/23 09:47:53;;;;;;;6.60;3.20;;;;;;;4.55;56.09;99551.36;24397;1356;3026971;-70
2021/11/23 09:50:22;;;;;;;5.40;2.60;;;;;;;4.64;56.37;99552.25;24426;1359;3026121;-74
2021/11/23 09:52:51;;;;;;;5.20;2.90;;;;;;;4.52;56.47;99550.75;24429;1358;3026404;-72
2021/11/23 09:55:20;;;;;;;6.20;3.90;;;;;;;4.33;57.48;99553.98;24382;1360;3051940;-74
2021/11/23 09:57:50;;;;;;;4.90;3.20;;;;;;;4.21;57.02;99551.96;24410;1364;3026401;-77
2021/11/23 10:00:29;;;;;;;6.90;3.70;;;;;;;4.25;57.79;99552.02;24407;1357;3027605;-69
2021/11/23 10:03:06;;;;;;;7.40;4.00;;;;;;;4.53;57.41;99558.17;24425;1359;3070999;-72
2021/11/23 10:05:40;;;;;;;9.20;3.20;;;;;;;4.60;57.35;99557.75;24441;1359;3053032;-69
2021/11/23 10:08:14;;;;;;;10.10;4.20;;;;;;;4.12;58.21;99567.85;24435;1362;3026404;-66
2021/11/23 10:10:52;;;;;;;5.70;3.50;;;;;;;4.07;58.43;99563.52;24436;1357;3055024;-74
2021/11/23 10:13:25;;;;;;;6.10;3.00;;;;;;;4.08;58.38;99568.88;24429;1364;3056630;-70
2021/11/23 10:15:57;;;;;;;9.80;3.40;;;;;;;3.79;58.00;99575.15;24454;1364;3051969;-69
2021/11/23 10:18:27;;;;;;;5.00;3.20;;;;;;;3.97;57.66;99564.19;24391;1360;3030835;-69
2021/11/23 10:20:58;;;;;;;6.40;3.50;;;;;;;3.84;58.07;99560.44;24462;1361;3056297;-68
2021/11/23 10:23:43;;;;;;;6.60;3.40;;;;;;;3.79;58.58;99563.19;24415;1363;3026333;-72
2021/11/23 10:26:16;;;;;;;6.50;3.60;;;;;;;3.71;58.06;99557.89;24429;1358;3054006;-69
2021/11/23 10:29:00;;;;;;;3.70;2.50;;;;;;;3.68;57.31;99559.36;24457;1363;3054032;-73
2021/11/23 10:31:36;;;;;;;3.90;2.20;;;;;;;3.68;56.73;99566.63;24399;1359;3071798;-72
2021/11/23 10:34:07;;;;;;;4.20;2.40;;;;;;;3.58;56.54;99564.02;24447;1357;3051712;-72
2021/11/23 10:36:43;;;;;;;4.10;2.30;;;;;;;3.71;55.74;99557.73;24391;1363;3026550;-72
2021/11/23 10:39:20;;;;;;;4.70;2.50;;;;;;;3.68;56.34;99559.89;24445;1360;3054138;-74
2021/11/23 10:41:51;;;;;;;3.70;2.20;;;;;;;3.73;56.36;99558.69;24495;1359;3059501;-70
2021/11/23 10:44:29;;;;;;;4.40;2.20;;;;;;;3.78;56.28;99555.59;24819;1360;3026814;-69
2021/11/23 10:47:03;;;;;;;3.40;1.80;;;;;;;3.93;55.32;99559.80;24417;1350;3052577;-73
2021/11/23 10:49:43;;;;;;;3.70;2.30;;;;;;;3.71;55.39;99558.43;24450;1363;3054217;-71
2021/11/23 10:52:30;;;;;;;5.80;2.40;;;;;;;3.79;55.66;99543.59;24427;1358;3069107;-66
2021/11/23 10:54:59;;;;;;;6.00;2.60;;;;;;;3.94;55.15;99546.09;24405;1360;3049488;-68
2021/11/23 10:57:28;;;;;;;6.80;2.60;;;;;;;3.94;55.93;99542.10;24480;1353;3029838;-67
2021/11/23 10:59:57;;;;;;;5.00;2.30;;;;;;;3.89;56.58;99542.44;24338;1360;3071331;-72
2021/11/23 11:02:26;;;;;;;6.30;2.70;;;;;;;3.76;56.69;99548.58;24409;1359;3026705;-71
2021/11/23 11:04:55;;;;;;;5.70;2.50;;;;;;;3.67;56.46;99549.52;24434;1360;3053660;-71
2021/11/23 11:07:25;;;;;;;2.50;1.60;;;;;;;3.52;56.85;99561.06;24434;1359;3026943;-68
2021/11/23 11:09:54;;;;;;;4.40;2.00;;;;;;;3.43;56.71;99551.64;24444;1360;3054197;-74
2021/11/23 11:12:24;;;;;;;5.90;2.50;;;;;;;3.49;57.06;99548.17;24422;1357;3026388;-71
2021/11/23 11:14:53;;;;;;;4.40;2.20;;;;;;;3.59;57.29;99550.80;24473;1360;3051610;-74
2021/11/23 11:17:45;;;;;;;7.60;2.90;;;;;;;3.72;57.26;99547.81;24398;1360;3053023;-71
2021/11/23 11:20:32;;;;;;;5.10;2.70;;;;;;;3.84;57.06;99551.41;24375;1359;3026386;-67
2021/11/23 11:23:07;;;;;;;7.40;2.80;;;;;;;3.75;57.41;99554.66;24386;1350;3068478;-71
2021/11/23 11:26:21;;;;;;;7.50;2.60;;;;;;;3.80;57.18;99547.92;24417;1360;3052197;-69
2021/11/23 11:29:01;;;;;;;4.40;2.60;;;;;;;4.01;56.87;99550.73;24353;1356;3052310;-70
2021/11/23 11:31:41;;;;;;;6.30;2.70;;;;;;;3.79;57.03;99547.42;24394;1363;3054833;-71
2021/11/23 11:34:26;;;;;;;5.10;2.80;;;;;;;3.87;57.11;99549.06;24430;1357;3059172;-72
2021/11/23 11:37:22;;;;;;;9.90;3.50;;;;;;;3.98;56.34;99545.77;24403;1356;3052153;-72